createdAt,value
2017-05-04T00:01:10.502Z,1015.82
2017-05-04T00:02:10.436Z,1015.86
2017-05-04T00:03:10.375Z,1015.86
2017-05-04T00:04:10.313Z,1015.79
2017-05-04T00:05:10.250Z,1015.83
2017-05-04T00:06:10.187Z,1015.77
2017-05-04T00:07:10.125Z,1015.8
2017-05-04T00:08:10.061Z,1015.68
2017-05-04T00:09:10.001Z,1015.69
2017-05-04T00:10:09.939Z,1015.71
2017-05-04T00:11:09.875Z,1015.68
2017-05-04T00:12:09.812Z,1015.69
2017-05-04T00:13:09.751Z,1015.65
2017-05-04T00:14:09.689Z,1015.61
2017-05-04T00:15:09.626Z,1015.6
2017-05-04T00:16:09.563Z,1015.56
2017-05-04T00:17:09.501Z,1015.54
2017-05-04T00:18:09.440Z,1015.59
2017-05-04T00:19:09.377Z,1015.57
2017-05-04T00:20:09.315Z,1015.52
2017-05-04T00:21:09.253Z,1015.54
2017-05-04T00:22:09.189Z,1015.56
2017-05-04T00:23:09.126Z,1015.53
2017-05-04T00:24:09.065Z,1015.53
2017-05-04T00:25:09.005Z,1015.51
2017-05-04T00:26:08.956Z,1015.46
2017-05-04T00:27:08.878Z,1015.49
2017-05-04T00:28:08.820Z,1015.47
2017-05-04T00:29:08.754Z,1015.47
2017-05-04T00:30:08.690Z,1015.48
2017-05-04T00:31:08.629Z,1015.46
2017-05-04T00:32:08.566Z,1015.44
2017-05-04T00:33:08.505Z,1015.44
2017-05-04T00:34:08.442Z,1015.46
2017-05-04T00:35:08.411Z,1015.39
2017-05-04T00:36:08.322Z,1015.37
2017-05-04T00:37:08.254Z,1015.38
2017-05-04T00:38:08.191Z,1015.37
2017-05-04T00:39:08.131Z,1015.4
2017-05-04T00:40:08.069Z,1015.36
2017-05-04T00:41:08.010Z,1015.39
2017-05-04T00:42:07.943Z,1015.4
2017-05-04T00:43:07.886Z,1015.38
2017-05-04T00:44:07.819Z,1015.37
2017-05-04T00:45:07.756Z,1015.36
2017-05-04T00:46:07.696Z,1015.36
2017-05-04T00:47:07.633Z,1015.33
2017-05-04T00:48:07.570Z,1015.32
2017-05-04T00:49:07.507Z,1015.33
2017-05-04T00:50:07.446Z,1015.34
2017-05-04T00:51:07.385Z,1015.33
2017-05-04T00:52:07.321Z,1015.31
2017-05-04T00:53:07.259Z,1015.3
2017-05-04T00:54:07.199Z,1015.31
2017-05-04T00:55:07.335Z,1015.3
2017-05-04T00:56:07.071Z,1015.33
2017-05-04T00:57:07.009Z,1015.32
2017-05-04T00:58:06.947Z,1015.3
2017-05-04T00:59:06.885Z,1015.34
2017-05-04T01:00:06.822Z,1015.35
2017-05-04T01:01:06.761Z,1015.36
2017-05-04T01:02:06.701Z,1015.41
2017-05-04T01:03:06.636Z,1015.41
2017-05-04T01:04:06.573Z,1015.34
2017-05-04T01:05:06.511Z,1015.41
2017-05-04T01:06:06.447Z,1015.37
2017-05-04T01:07:06.386Z,1015.39
2017-05-04T01:08:06.423Z,1015.36
2017-05-04T01:09:06.264Z,1015.37
2017-05-04T01:10:06.199Z,1015.38
2017-05-04T01:11:06.137Z,1015.35
2017-05-04T01:12:06.075Z,1015.34
2017-05-04T01:13:06.014Z,1015.36
2017-05-04T01:14:05.950Z,1015.33
2017-05-04T01:15:05.888Z,1015.35
2017-05-04T01:16:05.826Z,1015.36
2017-05-04T01:17:05.762Z,1015.35
2017-05-04T01:18:05.702Z,1015.37
2017-05-04T01:19:05.642Z,1015.36
2017-05-04T01:20:05.577Z,1015.39
2017-05-04T01:21:05.513Z,1015.36
2017-05-04T01:22:05.450Z,1015.35
2017-05-04T01:23:05.389Z,1015.34
2017-05-04T01:24:05.328Z,1015.34
2017-05-04T01:25:05.272Z,1015.38
2017-05-04T01:26:05.202Z,1015.34
2017-05-04T01:27:05.141Z,1015.34
2017-05-04T01:28:05.078Z,1015.33
2017-05-04T01:29:05.015Z,1015.3
2017-05-04T01:30:04.954Z,1015.3
2017-05-04T01:31:04.891Z,1015.3
2017-05-04T01:32:04.827Z,1015.27
2017-05-04T01:33:04.765Z,1015.23
2017-05-04T01:34:04.704Z,1015.22
2017-05-04T01:35:04.640Z,1015.24
2017-05-04T01:36:04.592Z,1015.22
2017-05-04T01:37:04.518Z,1015.25
2017-05-04T01:38:04.454Z,1015.23
2017-05-04T01:39:04.392Z,1015.2
2017-05-04T01:40:04.330Z,1015.17
2017-05-04T01:41:04.267Z,1015.19
2017-05-04T01:42:04.207Z,1015.16
2017-05-04T01:43:04.143Z,1015.19
2017-05-04T01:44:04.080Z,1015.2
2017-05-04T01:45:04.018Z,1015.24
2017-05-04T01:46:03.956Z,1015.2
2017-05-04T01:47:03.893Z,1015.23
2017-05-04T01:48:03.831Z,1015.2
2017-05-04T01:49:03.771Z,1015.19
2017-05-04T01:50:03.706Z,1015.17
2017-05-04T01:51:03.646Z,1015.18
2017-05-04T01:52:03.582Z,1015.15
2017-05-04T01:53:03.520Z,1015.16
2017-05-04T01:54:03.457Z,1015.18
2017-05-04T01:55:03.394Z,1015.18
2017-05-04T01:56:03.333Z,1015.22
2017-05-04T01:57:03.267Z,1015.18
2017-05-04T01:58:03.206Z,1015.19
2017-05-04T01:59:03.145Z,1015.19
2017-05-04T02:00:03.082Z,1015.18
2017-05-04T02:01:03.019Z,1015.17
2017-05-04T02:02:02.958Z,1015.17
2017-05-04T02:03:02.896Z,1015.18
2017-05-04T02:04:02.834Z,1015.14
2017-05-04T02:05:02.775Z,1015.13
2017-05-04T02:06:02.708Z,1015.15
2017-05-04T02:07:02.645Z,1015.13
2017-05-04T02:08:02.584Z,1015.11
2017-05-04T02:09:02.521Z,1015.11
2017-05-04T02:10:02.709Z,1015.09
2017-05-04T02:11:02.401Z,1015.1
2017-05-04T02:12:02.332Z,1015.09
2017-05-04T02:13:02.271Z,1015.07
2017-05-04T02:14:02.211Z,1015.06
2017-05-04T02:15:02.146Z,1015.07
2017-05-04T02:16:02.085Z,1015.07
2017-05-04T02:17:02.022Z,1015.1
2017-05-04T02:18:01.961Z,1015.07
2017-05-04T02:19:01.897Z,1015.07
2017-05-04T02:20:01.835Z,1015.07
2017-05-04T02:21:01.773Z,1015.11
2017-05-04T02:22:01.709Z,1015.1
2017-05-04T02:23:01.648Z,1015.08
2017-05-04T02:24:01.588Z,1015.12
2017-05-04T02:25:01.524Z,1015.09
2017-05-04T02:26:01.461Z,1015.09
2017-05-04T02:27:01.397Z,1015.11
2017-05-04T02:28:01.335Z,1015.08
2017-05-04T02:29:01.273Z,1015.09
2017-05-04T02:30:01.219Z,1015.06
2017-05-04T02:31:01.148Z,1015.05
2017-05-04T02:32:01.095Z,1015.08
2017-05-04T02:33:01.023Z,1015.03
2017-05-04T02:34:00.959Z,1015.06
2017-05-04T02:35:00.898Z,1015.05
2017-05-04T02:36:00.837Z,1015.04
2017-05-04T02:37:00.774Z,1015.08
2017-05-04T02:38:00.711Z,1015.02
2017-05-04T02:39:00.648Z,1015
2017-05-04T02:40:00.587Z,1014.97
2017-05-04T02:41:00.523Z,1014.97
2017-05-04T02:42:00.462Z,1014.95
2017-05-04T02:43:00.399Z,1014.95
2017-05-04T02:44:00.338Z,1014.94
2017-05-04T02:45:00.274Z,1014.94
2017-05-04T02:46:00.212Z,1014.9
2017-05-04T02:47:00.150Z,1014.86
2017-05-04T02:48:00.087Z,1014.85
2017-05-04T02:49:00.024Z,1014.82
2017-05-04T02:49:59.962Z,1014.87
2017-05-04T02:50:59.900Z,1014.83
2017-05-04T02:51:59.857Z,1014.82
2017-05-04T02:52:59.774Z,1014.81
2017-05-04T02:53:59.713Z,1014.79
2017-05-04T02:54:59.650Z,1014.79
2017-05-04T02:55:59.586Z,1014.78
2017-05-04T02:56:59.524Z,1014.78
2017-05-04T02:57:59.463Z,1014.78
2017-05-04T02:58:59.400Z,1014.79
2017-05-04T02:59:59.337Z,1014.75
2017-05-04T03:00:59.275Z,1014.73
2017-05-04T03:01:59.213Z,1014.75
2017-05-04T03:02:59.150Z,1014.75
2017-05-04T03:03:59.088Z,1014.67
2017-05-04T03:04:59.025Z,1014.66
2017-05-04T03:05:58.963Z,1014.66
2017-05-04T03:06:58.899Z,1014.68
2017-05-04T03:07:58.837Z,1014.66
2017-05-04T03:08:58.774Z,1014.64
2017-05-04T03:09:58.713Z,1014.68
2017-05-04T03:10:58.651Z,1014.64
2017-05-04T03:11:58.592Z,1014.64
2017-05-04T03:12:58.526Z,1014.59
2017-05-04T03:13:58.462Z,1014.66
2017-05-04T03:14:58.402Z,1014.69
2017-05-04T03:15:58.339Z,1014.65
2017-05-04T03:16:58.276Z,1014.68
2017-05-04T03:17:58.214Z,1014.71
2017-05-04T03:18:58.153Z,1014.69
2017-05-04T03:19:58.089Z,1014.63
2017-05-04T03:20:58.027Z,1014.61
2017-05-04T03:21:57.964Z,1014.66
2017-05-04T03:22:57.901Z,1014.64
2017-05-04T03:23:57.839Z,1014.64
2017-05-04T03:24:57.775Z,1014.62
2017-05-04T03:25:57.713Z,1014.62
2017-05-04T03:26:57.651Z,1014.57
2017-05-04T03:27:57.590Z,1014.55
2017-05-04T03:28:57.526Z,1014.51
2017-05-04T03:29:57.463Z,1014.53
2017-05-04T03:30:57.401Z,1014.56
2017-05-04T03:31:57.338Z,1014.52
2017-05-04T03:32:57.276Z,1014.53
2017-05-04T03:33:57.215Z,1014.58
2017-05-04T03:34:57.151Z,1014.56
2017-05-04T03:35:57.088Z,1014.56
2017-05-04T03:36:57.027Z,1014.59
2017-05-04T03:37:56.964Z,1014.61
2017-05-04T03:38:56.902Z,1014.6
2017-05-04T03:39:56.839Z,1014.65
2017-05-04T03:40:56.775Z,1014.69
2017-05-04T03:41:56.713Z,1014.72
2017-05-04T03:42:56.667Z,1014.72
2017-05-04T03:43:56.587Z,1014.71
2017-05-04T03:44:56.531Z,1014.71
2017-05-04T03:45:56.464Z,1014.67
2017-05-04T03:46:56.400Z,1014.69
2017-05-04T03:47:56.338Z,1014.69
2017-05-04T03:48:56.276Z,1014.68
2017-05-04T03:49:56.214Z,1014.71
2017-05-04T03:50:56.150Z,1014.67
2017-05-04T03:51:56.088Z,1014.65
2017-05-04T03:52:56.025Z,1014.64
2017-05-04T03:53:55.963Z,1014.67
2017-05-04T03:54:55.903Z,1014.64
2017-05-04T03:55:55.838Z,1014.66
2017-05-04T03:56:55.777Z,1014.65
2017-05-04T03:57:55.711Z,1014.6
2017-05-04T03:58:55.650Z,1014.59
2017-05-04T03:59:55.587Z,1014.56
2017-05-04T04:00:55.531Z,1014.57
2017-05-04T04:01:55.462Z,1014.59
2017-05-04T04:02:55.399Z,1014.68
2017-05-04T04:03:55.338Z,1014.81
2017-05-04T04:04:55.274Z,1014.87
2017-05-04T04:05:55.212Z,1014.9
2017-05-04T04:06:55.150Z,1014.9
2017-05-04T04:07:55.088Z,1014.86
2017-05-04T04:08:55.024Z,1014.87
2017-05-04T04:09:54.962Z,1014.83
2017-05-04T04:10:54.899Z,1014.85
2017-05-04T04:11:54.837Z,1014.85
2017-05-04T04:12:54.773Z,1014.86
2017-05-04T04:13:54.710Z,1014.83
2017-05-04T04:14:54.647Z,1014.84
2017-05-04T04:15:54.585Z,1014.89
2017-05-04T04:16:54.523Z,1014.89
2017-05-04T04:17:54.460Z,1014.84
2017-05-04T04:18:54.399Z,1014.83
2017-05-04T04:19:54.335Z,1014.89
2017-05-04T04:20:54.274Z,1014.84
2017-05-04T04:21:54.210Z,1014.83
2017-05-04T04:22:54.145Z,1014.85
2017-05-04T04:23:54.090Z,1014.84
2017-05-04T04:24:54.022Z,1014.85
2017-05-04T04:25:53.966Z,1014.82
2017-05-04T04:26:53.894Z,1014.8
2017-05-04T04:27:53.834Z,1014.81
2017-05-04T04:28:53.770Z,1014.8
2017-05-04T04:29:53.707Z,1014.81
2017-05-04T04:30:53.645Z,1014.76
2017-05-04T04:31:53.581Z,1014.78
2017-05-04T04:32:53.521Z,1014.8
2017-05-04T04:33:53.459Z,1014.72
2017-05-04T04:34:53.393Z,1014.71
2017-05-04T04:35:53.330Z,1014.72
2017-05-04T04:36:53.267Z,1014.71
2017-05-04T04:37:53.204Z,1014.72
2017-05-04T04:38:53.142Z,1014.69
2017-05-04T04:39:53.078Z,1014.69
2017-05-04T04:40:53.016Z,1014.68
2017-05-04T04:41:52.953Z,1014.71
2017-05-04T04:42:52.891Z,1014.71
2017-05-04T04:43:52.826Z,1014.73
2017-05-04T04:44:52.765Z,1014.75
2017-05-04T04:45:52.701Z,1014.77
2017-05-04T04:46:52.640Z,1014.89
2017-05-04T04:47:52.577Z,1014.88
2017-05-04T04:48:52.514Z,1014.82
2017-05-04T04:49:52.450Z,1014.85
2017-05-04T04:50:52.388Z,1014.82
2017-05-04T04:51:52.325Z,1014.87
2017-05-04T04:52:52.262Z,1014.86
2017-05-04T04:53:52.199Z,1014.55
2017-05-04T04:54:52.136Z,1014.6
2017-05-04T04:55:52.071Z,1014.56
2017-05-04T04:56:52.010Z,1014.61
2017-05-04T04:57:51.948Z,1014.64
2017-05-04T04:58:51.883Z,1014.56
2017-05-04T04:59:51.821Z,1014.56
2017-05-04T05:00:51.758Z,1014.54
2017-05-04T05:01:51.700Z,1014.53
2017-05-04T05:02:51.634Z,1014.56
2017-05-04T05:03:51.568Z,1014.59
2017-05-04T05:04:51.506Z,1014.57
2017-05-04T05:05:51.445Z,1014.53
2017-05-04T05:06:51.380Z,1014.56
2017-05-04T05:07:51.317Z,1014.52
2017-05-04T05:08:51.256Z,1014.53
2017-05-04T05:09:51.191Z,1014.52
2017-05-04T05:10:51.130Z,1014.49
2017-05-04T05:11:51.066Z,1014.49
2017-05-04T05:12:51.003Z,1014.49
2017-05-04T05:13:50.941Z,1014.52
2017-05-04T05:14:50.877Z,1014.51
2017-05-04T05:15:50.815Z,1014.5
2017-05-04T05:16:50.752Z,1014.51
2017-05-04T05:17:50.689Z,1014.53
2017-05-04T05:18:50.625Z,1014.5
2017-05-04T05:19:50.563Z,1014.47
2017-05-04T05:20:50.500Z,1014.46
2017-05-04T05:21:50.436Z,1014.48
2017-05-04T05:22:50.374Z,1014.46
2017-05-04T05:23:50.311Z,1014.46
2017-05-04T05:24:50.273Z,1014.45
2017-05-04T05:25:50.186Z,1014.46
2017-05-04T05:26:50.131Z,1014.41
2017-05-04T05:27:50.060Z,1014.41
2017-05-04T05:28:49.996Z,1014.41
2017-05-04T05:29:49.934Z,1014.39
2017-05-04T05:30:50.022Z,1014.37
2017-05-04T05:31:49.808Z,1014.37
2017-05-04T05:32:49.745Z,1014.38
2017-05-04T05:33:49.682Z,1014.38
2017-05-04T05:34:49.619Z,1014.39
2017-05-04T05:35:49.557Z,1014.38
2017-05-04T05:36:49.494Z,1014.43
2017-05-04T05:37:49.434Z,1014.41
2017-05-04T05:38:49.368Z,1014.44
2017-05-04T05:39:49.305Z,1014.41
2017-05-04T05:40:49.242Z,1014.42
2017-05-04T05:41:49.179Z,1014.41
2017-05-04T05:42:49.117Z,1014.42
2017-05-04T05:43:49.053Z,1014.45
2017-05-04T05:44:48.989Z,1014.44
2017-05-04T05:45:48.928Z,1014.46
2017-05-04T05:46:48.865Z,1014.44
2017-05-04T05:47:48.808Z,1014.47
2017-05-04T05:48:48.739Z,1014.45
2017-05-04T05:49:48.676Z,1014.44
2017-05-04T05:50:48.612Z,1014.48
2017-05-04T05:51:48.549Z,1014.49
2017-05-04T05:52:48.498Z,1014.41
2017-05-04T05:53:48.425Z,1014.44
2017-05-04T05:54:48.360Z,1014.42
2017-05-04T05:55:48.297Z,1014.42
2017-05-04T05:56:48.235Z,1014.39
2017-05-04T05:57:48.174Z,1014.38
2017-05-04T05:58:48.110Z,1014.42
2017-05-04T05:59:48.046Z,1014.4
2017-05-04T06:00:47.984Z,1014.46
2017-05-04T06:01:47.920Z,1014.39
2017-05-04T06:02:47.858Z,1014.4
2017-05-04T06:03:47.796Z,1014.38
2017-05-04T06:04:47.732Z,1014.36
2017-05-04T06:05:47.669Z,1014.37
2017-05-04T06:06:47.606Z,1014.4
2017-05-04T06:07:47.543Z,1014.36
2017-05-04T06:08:47.480Z,1014.36
2017-05-04T06:09:47.417Z,1014.36
2017-05-04T06:10:47.354Z,1014.31
2017-05-04T06:11:47.291Z,1014.27
2017-05-04T06:12:47.227Z,1014.3
2017-05-04T06:13:47.164Z,1014.34
2017-05-04T06:14:47.103Z,1014.35
2017-05-04T06:15:47.040Z,1014.28
2017-05-04T06:16:46.976Z,1014.32
2017-05-04T06:17:46.914Z,1014.35
2017-05-04T06:18:46.851Z,1014.3
2017-05-04T06:19:46.788Z,1014.35
2017-05-04T06:20:46.725Z,1014.34
2017-05-04T06:21:46.662Z,1014.39
2017-05-04T06:22:46.600Z,1014.4
2017-05-04T06:23:46.537Z,1014.37
2017-05-04T06:24:46.474Z,1014.38
2017-05-04T06:25:46.411Z,1014.33
2017-05-04T06:26:46.348Z,1014.34
2017-05-04T06:27:46.298Z,1014.29
2017-05-04T06:28:46.223Z,1014.3
2017-05-04T06:29:46.160Z,1014.33
2017-05-04T06:30:46.107Z,1014.34
2017-05-04T06:31:46.034Z,1014.34
2017-05-04T06:32:45.970Z,1014.33
2017-05-04T06:33:45.909Z,1014.36
2017-05-04T06:34:45.845Z,1014.37
2017-05-04T06:35:45.782Z,1014.46
2017-05-04T06:36:45.719Z,1014.41
2017-05-04T06:37:45.656Z,1014.41
2017-05-04T06:38:45.592Z,1014.44
2017-05-04T06:39:45.530Z,1014.41
2017-05-04T06:40:45.467Z,1014.39
2017-05-04T06:41:45.404Z,1014.33
2017-05-04T06:42:45.341Z,1014.3
2017-05-04T06:43:45.287Z,1014.3
2017-05-04T06:44:45.215Z,1014.27
2017-05-04T06:45:45.151Z,1014.27
2017-05-04T06:46:45.088Z,1014.24
2017-05-04T06:47:45.028Z,1014.27
2017-05-04T06:48:44.964Z,1014.23
2017-05-04T06:49:44.899Z,1014.21
2017-05-04T06:50:44.836Z,1014.24
2017-05-04T06:51:44.772Z,1014.25
2017-05-04T06:52:44.707Z,1014.26
2017-05-04T06:53:44.643Z,1014.25
2017-05-04T06:54:44.582Z,1014.24
2017-05-04T06:55:44.519Z,1014.25
2017-05-04T06:56:44.454Z,1014.25
2017-05-04T06:57:44.409Z,1014.24
2017-05-04T06:58:44.328Z,1014.22
2017-05-04T06:59:44.264Z,1014.22
2017-05-04T07:00:44.200Z,1014.23
2017-05-04T07:01:44.137Z,1014.23
2017-05-04T07:02:44.073Z,1014.22
2017-05-04T07:03:44.009Z,1014.22
2017-05-04T07:04:43.945Z,1014.24
2017-05-04T07:05:43.883Z,1014.24
2017-05-04T07:06:43.817Z,1014.27
2017-05-04T07:07:43.754Z,1014.28
2017-05-04T07:08:43.688Z,1014.28
2017-05-04T07:09:43.625Z,1014.23
2017-05-04T07:10:43.563Z,1014.27
2017-05-04T07:11:43.498Z,1014.28
2017-05-04T07:12:43.446Z,1014.29
2017-05-04T07:13:43.370Z,1014.32
2017-05-04T07:14:43.305Z,1014.31
2017-05-04T07:15:43.241Z,1014.28
2017-05-04T07:16:43.178Z,1014.31
2017-05-04T07:17:43.114Z,1014.3
2017-05-04T07:18:43.061Z,1014.26
2017-05-04T07:19:42.985Z,1014.32
2017-05-04T07:20:42.920Z,1014.32
2017-05-04T07:21:42.856Z,1014.29
2017-05-04T07:22:42.791Z,1014.32
2017-05-04T07:23:42.725Z,1014.3
2017-05-04T07:24:42.662Z,1014.29
2017-05-04T07:25:42.597Z,1014.24
2017-05-04T07:26:42.534Z,1014.27
2017-05-04T07:27:42.480Z,1014.27
2017-05-04T07:28:42.405Z,1014.26
2017-05-04T07:29:42.340Z,1014.21
2017-05-04T07:30:42.275Z,1014.23
2017-05-04T07:31:42.211Z,1014.23
2017-05-04T07:32:42.146Z,1014.22
2017-05-04T07:33:42.083Z,1014.25
2017-05-04T07:34:42.016Z,1014.27
2017-05-04T07:35:41.951Z,1014.26
2017-05-04T07:36:41.885Z,1014.25
2017-05-04T07:37:41.821Z,1014.24
2017-05-04T07:38:41.757Z,1014.26
2017-05-04T07:39:41.693Z,1014.26
2017-05-04T07:40:41.627Z,1014.27
2017-05-04T07:41:41.563Z,1014.24
2017-05-04T07:42:41.498Z,1014.26
2017-05-04T07:43:41.434Z,1014.27
2017-05-04T07:44:41.369Z,1014.27
2017-05-04T07:45:41.304Z,1014.3
2017-05-04T07:46:41.240Z,1014.29
2017-05-04T07:47:41.173Z,1014.32
2017-05-04T07:48:41.110Z,1014.27
2017-05-04T07:49:41.046Z,1014.28
2017-05-04T07:50:40.980Z,1014.25
2017-05-04T07:51:40.915Z,1014.25
2017-05-04T07:52:40.851Z,1014.27
2017-05-04T07:53:40.787Z,1014.24
2017-05-04T07:54:40.721Z,1014.24
2017-05-04T07:55:40.657Z,1014.23
2017-05-04T07:56:40.592Z,1014.21
2017-05-04T07:57:40.528Z,1014.25
2017-05-04T07:58:40.464Z,1014.24
2017-05-04T07:59:40.396Z,1014.25
2017-05-04T08:00:40.333Z,1014.21
2017-05-04T08:01:40.279Z,1014.2
2017-05-04T08:02:40.203Z,1014.19
2017-05-04T08:03:40.139Z,1014.2
2017-05-04T08:04:40.074Z,1014.18
2017-05-04T08:05:40.009Z,1014.16
2017-05-04T08:06:39.944Z,1014.17
2017-05-04T08:07:39.881Z,1014.16
2017-05-04T08:08:39.818Z,1014.15
2017-05-04T08:09:39.752Z,1014.12
2017-05-04T08:10:39.688Z,1014.07
2017-05-04T08:11:39.625Z,1014.06
2017-05-04T08:12:39.565Z,1014.08
2017-05-04T08:13:39.494Z,1014.01
2017-05-04T08:14:39.431Z,1014.05
2017-05-04T08:15:39.368Z,1014.06
2017-05-04T08:16:39.303Z,1014.07
2017-05-04T08:17:39.239Z,1014.02
2017-05-04T08:18:39.179Z,1014.06
2017-05-04T08:19:39.112Z,1014.02
2017-05-04T08:20:39.048Z,1014.03
2017-05-04T08:21:38.984Z,1014.03
2017-05-04T08:22:38.921Z,1014.05
2017-05-04T08:23:38.858Z,1014
2017-05-04T08:24:38.793Z,1014
2017-05-04T08:25:38.731Z,1014.01
2017-05-04T08:26:38.668Z,1014
2017-05-04T08:27:38.603Z,1014.01
2017-05-04T08:28:38.540Z,1013.96
2017-05-04T08:29:38.478Z,1013.98
2017-05-04T08:30:38.414Z,1013.99
2017-05-04T08:31:38.351Z,1013.98
2017-05-04T08:32:38.290Z,1013.97
2017-05-04T08:33:38.234Z,1013.92
2017-05-04T08:34:38.163Z,1013.95
2017-05-04T08:35:38.099Z,1013.94
2017-05-04T08:36:38.038Z,1013.94
2017-05-04T08:37:37.978Z,1014.02
2017-05-04T08:38:37.911Z,1013.93
2017-05-04T08:39:37.848Z,1013.96
2017-05-04T08:40:37.785Z,1013.99
2017-05-04T08:41:37.723Z,1014.09
2017-05-04T08:42:37.659Z,1014.09
2017-05-04T08:43:37.597Z,1014.09
2017-05-04T08:44:37.536Z,1014.16
2017-05-04T08:45:37.473Z,1014.09
2017-05-04T08:46:37.409Z,1014.08
2017-05-04T08:47:37.349Z,1014.09
2017-05-04T08:48:37.285Z,1014.04
2017-05-04T08:49:37.222Z,1014.06
2017-05-04T08:50:37.163Z,1014.05
2017-05-04T08:51:37.165Z,1014
2017-05-04T08:52:37.077Z,1013.93
2017-05-04T08:53:36.973Z,1013.91
2017-05-04T08:54:36.911Z,1013.89
2017-05-04T08:55:36.848Z,1013.89
2017-05-04T08:56:36.786Z,1013.89
2017-05-04T08:57:36.724Z,1013.8
2017-05-04T08:58:36.669Z,1013.88
2017-05-04T08:59:36.602Z,1013.84
2017-05-04T09:00:36.545Z,1013.84
2017-05-04T09:01:36.474Z,1013.81
2017-05-04T09:02:36.413Z,1013.84
2017-05-04T09:03:36.354Z,1013.83
2017-05-04T09:04:36.287Z,1013.82
2017-05-04T09:05:36.235Z,1013.8
2017-05-04T09:06:36.173Z,1013.79
2017-05-04T09:07:36.103Z,1013.85
2017-05-04T09:08:36.041Z,1013.73
2017-05-04T09:09:35.978Z,1013.75
2017-05-04T09:10:35.920Z,1013.72
2017-05-04T09:11:35.852Z,1013.73
2017-05-04T09:12:35.792Z,1013.73
2017-05-04T09:13:35.729Z,1013.7
2017-05-04T09:14:35.667Z,1013.76
2017-05-04T09:15:35.604Z,1013.74
2017-05-04T09:16:35.542Z,1013.76
2017-05-04T09:17:35.482Z,1013.77
2017-05-04T09:18:35.423Z,1013.75
2017-05-04T09:19:35.356Z,1013.77
2017-05-04T09:20:35.393Z,1013.76
2017-05-04T09:21:35.233Z,1013.78
2017-05-04T09:22:35.170Z,1013.77
2017-05-04T09:23:35.107Z,1013.75
2017-05-04T09:24:35.047Z,1013.81
2017-05-04T09:25:35.336Z,1013.78
2017-05-04T09:26:34.921Z,1013.78
2017-05-04T09:27:34.871Z,1013.81
2017-05-04T09:28:34.798Z,1013.77
2017-05-04T09:29:34.738Z,1013.85
2017-05-04T09:30:34.674Z,1013.78
2017-05-04T09:31:34.613Z,1013.78
2017-05-04T09:32:34.552Z,1013.76
2017-05-04T09:33:34.489Z,1013.82
2017-05-04T09:34:34.427Z,1013.83
2017-05-04T09:35:34.366Z,1013.79
2017-05-04T09:36:34.304Z,1013.79
2017-05-04T09:37:34.259Z,1013.83
2017-05-04T09:38:34.180Z,1013.81
2017-05-04T09:39:34.118Z,1013.79
2017-05-04T09:40:34.180Z,1013.79
2017-05-04T09:41:33.994Z,1013.81
2017-05-04T09:42:33.932Z,1013.8
2017-05-04T09:43:33.871Z,1013.77
2017-05-04T09:44:33.808Z,1013.76
2017-05-04T09:45:33.949Z,1013.84
2017-05-04T09:46:33.689Z,1013.76
2017-05-04T09:47:33.622Z,1013.78
2017-05-04T09:48:33.560Z,1013.81
2017-05-04T09:49:33.500Z,1013.78
2017-05-04T09:50:33.438Z,1013.78
2017-05-04T09:51:33.374Z,1013.79
2017-05-04T09:52:33.313Z,1013.75
2017-05-04T09:53:33.252Z,1013.78
2017-05-04T09:54:33.202Z,1013.71
2017-05-04T09:55:33.127Z,1013.74
2017-05-04T09:56:33.064Z,1013.79
2017-05-04T09:57:33.006Z,1013.72
2017-05-04T09:58:32.942Z,1013.73
2017-05-04T09:59:32.881Z,1013.69
2017-05-04T10:00:32.820Z,1013.69
2017-05-04T10:01:32.759Z,1013.64
2017-05-04T10:02:32.698Z,1013.63
2017-05-04T10:03:32.638Z,1013.63
2017-05-04T10:04:32.583Z,1013.69
2017-05-04T10:05:32.512Z,1013.66
2017-05-04T10:06:32.449Z,1013.68
2017-05-04T10:07:32.388Z,1013.7
2017-05-04T10:08:32.326Z,1013.66
2017-05-04T10:09:32.267Z,1013.66
2017-05-04T10:10:32.302Z,1013.65
2017-05-04T10:11:32.141Z,1013.65
2017-05-04T10:12:32.080Z,1013.66
2017-05-04T10:13:32.021Z,1013.67
2017-05-04T10:14:31.957Z,1013.67
2017-05-04T10:15:32.245Z,1013.6
2017-05-04T10:16:31.833Z,1013.59
2017-05-04T10:17:31.771Z,1013.6
2017-05-04T10:18:31.711Z,1013.59
2017-05-04T10:19:31.649Z,1013.58
2017-05-04T10:20:31.587Z,1013.57
2017-05-04T10:21:31.526Z,1013.59
2017-05-04T10:22:31.463Z,1013.58
2017-05-04T10:23:31.412Z,1013.57
2017-05-04T10:24:31.341Z,1013.57
2017-05-04T10:25:31.278Z,1013.59
2017-05-04T10:26:31.218Z,1013.55
2017-05-04T10:27:31.159Z,1013.52
2017-05-04T10:28:31.118Z,1013.57
2017-05-04T10:29:31.048Z,1013.49
2017-05-04T10:30:31.271Z,1013.46
2017-05-04T10:31:30.925Z,1013.51
2017-05-04T10:32:30.850Z,1013.48
2017-05-04T10:33:30.788Z,1013.5
2017-05-04T10:34:30.729Z,1013.5
2017-05-04T10:35:30.775Z,1013.47
2017-05-04T10:36:30.602Z,1013.45
2017-05-04T10:37:30.542Z,1013.5
2017-05-04T10:38:30.481Z,1013.43
2017-05-04T10:39:30.419Z,1013.43
2017-05-04T10:40:30.357Z,1013.46
2017-05-04T10:41:30.296Z,1013.43
2017-05-04T10:42:30.234Z,1013.47
2017-05-04T10:43:30.174Z,1013.5
2017-05-04T10:44:30.113Z,1013.49
2017-05-04T10:45:30.050Z,1013.51
2017-05-04T10:46:29.989Z,1013.44
2017-05-04T10:47:29.932Z,1013.46
2017-05-04T10:48:29.866Z,1013.39
2017-05-04T10:49:29.805Z,1013.39
2017-05-04T10:50:29.743Z,1013.34
2017-05-04T10:51:29.681Z,1013.36
2017-05-04T10:52:29.621Z,1013.36
2017-05-04T10:53:29.559Z,1013.33
2017-05-04T10:54:29.496Z,1013.37
2017-05-04T10:55:29.434Z,1013.34
2017-05-04T10:56:29.374Z,1013.34
2017-05-04T10:57:29.312Z,1013.34
2017-05-04T10:58:29.250Z,1013.37
2017-05-04T10:59:29.189Z,1013.29
2017-05-04T11:00:29.143Z,1013.35
2017-05-04T11:01:29.064Z,1013.34
2017-05-04T11:02:29.004Z,1013.36
2017-05-04T11:03:28.950Z,1013.31
2017-05-04T11:04:28.917Z,1013.3
2017-05-04T11:05:28.833Z,1013.34
2017-05-04T11:06:28.798Z,1013.28
2017-05-04T11:07:28.748Z,1013.34
2017-05-04T11:08:28.638Z,1013.32
2017-05-04T11:09:28.613Z,1013.26
2017-05-04T11:10:28.519Z,1013.28
2017-05-04T11:11:28.455Z,1013.27
2017-05-04T11:12:28.394Z,1013.29
2017-05-04T11:13:28.329Z,1013.3
2017-05-04T11:14:28.272Z,1013.3
2017-05-04T11:15:28.205Z,1013.32
2017-05-04T11:16:28.144Z,1013.29
2017-05-04T11:17:28.081Z,1013.25
2017-05-04T11:18:28.021Z,1013.25
2017-05-04T11:19:27.959Z,1013.25
2017-05-04T11:20:27.901Z,1013.24
2017-05-04T11:21:27.834Z,1013.25
2017-05-04T11:22:27.774Z,1013.25
2017-05-04T11:23:27.713Z,1013.26
2017-05-04T11:24:27.660Z,1013.25
2017-05-04T11:25:27.597Z,1013.32
2017-05-04T11:26:27.530Z,1013.24
2017-05-04T11:27:27.465Z,1013.23
2017-05-04T11:28:27.405Z,1013.25
2017-05-04T11:29:27.343Z,1013.24
2017-05-04T11:30:27.282Z,1013.32
2017-05-04T11:31:27.221Z,1013.2
2017-05-04T11:32:27.160Z,1013.21
2017-05-04T11:33:27.098Z,1013.17
2017-05-04T11:34:27.036Z,1013.18
2017-05-04T11:35:26.974Z,1013.19
2017-05-04T11:36:26.914Z,1013.15
2017-05-04T11:37:26.860Z,1013.14
2017-05-04T11:38:26.791Z,1013.14
2017-05-04T11:39:26.729Z,1013.1
2017-05-04T11:40:26.669Z,1013.12
2017-05-04T11:41:26.606Z,1013.17
2017-05-04T11:42:26.545Z,1013.1
2017-05-04T11:43:26.484Z,1013.09
2017-05-04T11:44:26.422Z,1013.08
2017-05-04T11:45:26.369Z,1013.04
2017-05-04T11:46:26.303Z,1013.12
2017-05-04T11:47:26.238Z,1013.1
2017-05-04T11:48:26.175Z,1013.08
2017-05-04T11:49:26.114Z,1013.08
2017-05-04T11:50:26.053Z,1013.08
2017-05-04T11:51:25.991Z,1013.05
2017-05-04T11:52:25.930Z,1013.04
2017-05-04T11:53:25.869Z,1013.03
2017-05-04T11:54:25.807Z,1013.01
2017-05-04T11:55:25.747Z,1013.04
2017-05-04T11:56:25.684Z,1013.02
2017-05-04T11:57:25.621Z,1013.04
2017-05-04T11:58:25.560Z,1013.03
2017-05-04T11:59:25.500Z,1013.04
2017-05-04T12:00:25.439Z,1013.05
2017-05-04T12:01:25.377Z,1013.04
2017-05-04T12:02:25.316Z,1013.05
2017-05-04T12:03:25.253Z,1013.03
2017-05-04T12:04:25.200Z,1013.04
2017-05-04T12:05:25.133Z,1012.99
2017-05-04T12:06:25.072Z,1012.99
2017-05-04T12:07:25.012Z,1012.98
2017-05-04T12:08:24.948Z,1012.95